createdAt,value
2022-09-24T00:01:40.963Z,9.35
2022-09-24T00:04:11.426Z,10.93
2022-09-24T00:06:43.014Z,12.48
2022-09-24T00:09:10.727Z,12.90
2022-09-24T00:11:39.407Z,10.85
2022-09-24T00:14:07.907Z,10.50
2022-09-24T00:16:35.694Z,10.68
2022-09-24T00:19:05.415Z,10.38
2022-09-24T00:21:34.068Z,11.38
2022-09-24T00:24:03.680Z,12.82
2022-09-24T00:26:48.538Z,9.18
2022-09-24T00:29:17.980Z,13.82
2022-09-24T00:31:45.383Z,13.55
2022-09-24T00:34:14.097Z,14.20
2022-09-24T00:36:41.527Z,11.13
2022-09-24T00:39:09.074Z,12.45
2022-09-24T00:41:37.971Z,11.30
2022-09-24T00:44:44.673Z,15.57
2022-09-24T00:47:12.833Z,10.90
2022-09-24T00:49:42.198Z,12.05
2022-09-24T00:52:09.726Z,11.70
2022-09-24T00:54:37.343Z,9.27
2022-09-24T00:57:04.695Z,10.68
2022-09-24T00:59:32.063Z,9.93
2022-09-24T01:01:59.768Z,11.48
2022-09-24T01:04:28.558Z,10.63
2022-09-24T01:06:57.607Z,11.88
2022-09-24T01:09:27.275Z,12.05
2022-09-24T01:12:03.315Z,11.85
2022-09-24T01:14:41.192Z,11.90
2022-09-24T01:17:16.705Z,12.43
2022-09-24T01:20:04.553Z,14.50
2022-09-24T01:22:42.804Z,11.18
2022-09-24T01:25:16.922Z,12.18
2022-09-24T01:27:58.431Z,11.55
2022-09-24T01:30:32.131Z,14.68
2022-09-24T01:33:01.862Z,12.85
2022-09-24T01:35:33.047Z,11.35
2022-09-24T01:38:03.154Z,11.40
2022-09-24T01:40:31.356Z,14.10
2022-09-24T01:43:00.180Z,16.75
2022-09-24T01:45:29.978Z,17.25
2022-09-24T01:47:57.405Z,13.82
2022-09-24T01:50:25.746Z,13.40
2022-09-24T01:52:57.306Z,10.80
2022-09-24T01:55:27.793Z,9.73
2022-09-24T01:57:58.183Z,10.27
2022-09-24T02:00:25.848Z,11.40
2022-09-24T02:02:57.689Z,11.90
2022-09-24T02:05:29.044Z,10.80
2022-09-24T02:07:59.516Z,10.13
2022-09-24T02:10:30.095Z,11.13
2022-09-24T02:12:59.442Z,12.52
2022-09-24T02:15:32.392Z,10.10
2022-09-24T02:18:04.848Z,12.98
2022-09-24T02:20:32.356Z,12.48
2022-09-24T02:23:00.084Z,10.77
2022-09-24T02:25:31.729Z,13.00
2022-09-24T02:27:59.144Z,10.13
2022-09-24T02:30:26.465Z,9.95
2022-09-24T02:32:54.593Z,13.35
2022-09-24T02:35:22.491Z,11.70
2022-09-24T02:37:49.825Z,9.77
2022-09-24T02:40:17.197Z,10.50
2022-09-24T02:42:44.630Z,9.80
2022-09-24T02:45:14.112Z,12.05
2022-09-24T02:47:41.517Z,10.30
2022-09-24T02:50:09.625Z,14.13
2022-09-24T02:52:38.327Z,10.43
2022-09-24T02:55:06.291Z,10.88
2022-09-24T02:57:33.609Z,12.57
2022-09-24T03:00:00.962Z,10.07
2022-09-24T03:02:28.361Z,12.13
2022-09-24T03:04:56.360Z,10.98
2022-09-24T03:07:23.753Z,16.45
2022-09-24T03:09:52.396Z,9.27
2022-09-24T03:12:19.708Z,12.52
2022-09-24T03:14:47.038Z,12.57
2022-09-24T03:17:14.368Z,12.35
2022-09-24T03:19:41.799Z,12.30
2022-09-24T03:22:09.133Z,11.48
2022-09-24T03:24:36.455Z,11.55
2022-09-24T03:27:05.124Z,12.18
2022-09-24T03:29:50.141Z,13.20
2022-09-24T03:32:17.489Z,9.32
2022-09-24T03:34:44.849Z,11.30
2022-09-24T03:37:12.188Z,11.13
2022-09-24T03:39:39.504Z,12.27
2022-09-24T03:42:08.183Z,12.63
2022-09-24T03:44:35.522Z,14.60
2022-09-24T03:47:02.845Z,13.45
2022-09-24T03:49:30.189Z,11.38
2022-09-24T03:51:57.515Z,11.07
2022-09-24T03:54:24.863Z,10.63
2022-09-24T03:56:52.170Z,10.38
2022-09-24T03:59:20.809Z,13.38
2022-09-24T04:01:48.195Z,11.68
2022-09-24T04:04:16.205Z,12.38
2022-09-24T04:06:44.674Z,11.85
2022-09-24T04:09:12.010Z,11.07
2022-09-24T04:11:39.672Z,11.05
2022-09-24T04:14:07.024Z,14.07
2022-09-24T04:16:35.882Z,11.40
2022-09-24T04:19:03.230Z,11.70
2022-09-24T04:21:30.824Z,11.23
2022-09-24T04:23:58.138Z,11.45
2022-09-24T04:26:25.723Z,10.95
2022-09-24T04:28:53.076Z,10.85
2022-09-24T04:31:21.001Z,10.43
2022-09-24T04:33:49.744Z,10.02
2022-09-24T04:36:17.624Z,13.02
2022-09-24T04:38:46.217Z,13.60
2022-09-24T04:41:15.840Z,12.75
2022-09-24T04:43:43.285Z,9.82
2022-09-24T04:46:10.771Z,14.07
2022-09-24T04:48:38.300Z,10.18
2022-09-24T04:51:07.844Z,14.05
2022-09-24T04:53:36.588Z,13.38
2022-09-24T04:56:04.488Z,15.13
2022-09-24T04:58:32.332Z,11.95
2022-09-24T05:01:02.839Z,12.63
2022-09-24T05:03:30.158Z,12.15
2022-09-24T05:05:57.546Z,10.00
2022-09-24T05:08:26.196Z,13.75
2022-09-24T05:10:54.276Z,12.20
2022-09-24T05:13:21.891Z,12.20
2022-09-24T05:15:49.247Z,12.82
2022-09-24T05:18:16.632Z,12.68
2022-09-24T05:20:43.958Z,14.07
2022-09-24T05:23:11.450Z,16.85
2022-09-24T05:26:07.510Z,12.93
2022-09-24T05:28:33.916Z,13.13
2022-09-24T05:31:02.404Z,11.95
2022-09-24T05:33:29.809Z,15.68
2022-09-24T05:35:58.467Z,13.07
2022-09-24T05:38:25.993Z,11.73
2022-09-24T05:40:54.816Z,12.38
2022-09-24T05:43:22.325Z,14.90
2022-09-24T05:45:50.561Z,11.63
2022-09-24T05:48:17.908Z,16.38
2022-09-24T05:50:45.307Z,12.18
2022-09-24T05:53:12.824Z,10.65
2022-09-24T05:55:40.135Z,15.20
2022-09-24T05:58:11.122Z,15.07
2022-09-24T06:00:38.629Z,11.90
2022-09-24T06:03:07.974Z,13.13
2022-09-24T06:05:35.925Z,12.68
2022-09-24T06:08:03.698Z,11.57
2022-09-24T06:10:31.236Z,11.45
2022-09-24T06:12:59.025Z,16.45
2022-09-24T06:15:27.752Z,12.32
2022-09-24T06:17:55.572Z,12.30
2022-09-24T06:20:23.360Z,12.70
2022-09-24T06:22:50.723Z,11.13
2022-09-24T06:25:18.077Z,9.70
2022-09-24T06:27:45.416Z,12.13
2022-09-24T06:30:13.045Z,13.07
2022-09-24T06:32:41.707Z,15.30
2022-09-24T06:35:09.516Z,12.73
2022-09-24T06:37:36.886Z,11.90
2022-09-24T06:40:04.655Z,14.48
2022-09-24T06:42:32.503Z,12.57
2022-09-24T06:44:59.863Z,12.20
2022-09-24T06:47:27.215Z,11.27
2022-09-24T06:49:55.840Z,12.40
2022-09-24T06:52:23.331Z,10.40
2022-09-24T06:54:50.683Z,12.65
2022-09-24T06:57:18.045Z,12.02
2022-09-24T06:59:45.805Z,11.70
2022-09-24T07:02:13.527Z,11.25
2022-09-24T07:04:41.083Z,11.45
2022-09-24T07:07:27.426Z,10.52
2022-09-24T07:09:54.777Z,12.20
2022-09-24T07:12:22.142Z,12.45
2022-09-24T07:14:49.665Z,12.82
2022-09-24T07:17:17.303Z,12.23
2022-09-24T07:19:44.626Z,14.30
2022-09-24T07:22:13.286Z,13.27
2022-09-24T07:24:40.620Z,12.20
2022-09-24T07:27:08.297Z,11.70
2022-09-24T07:29:36.010Z,10.15
2022-09-24T07:32:04.213Z,12.57
2022-09-24T07:34:31.909Z,10.65
2022-09-24T07:36:59.548Z,12.00
2022-09-24T07:39:28.202Z,13.75
2022-09-24T07:41:56.064Z,11.93
2022-09-24T07:44:23.869Z,16.08
2022-09-24T07:46:51.674Z,11.27
2022-09-24T07:49:19.397Z,14.77
2022-09-24T07:51:46.756Z,15.95
2022-09-24T07:54:17.200Z,13.10
2022-09-24T07:56:46.174Z,13.18
2022-09-24T07:59:13.764Z,13.80
2022-09-24T08:01:41.232Z,13.43
2022-09-24T08:04:08.783Z,12.15
2022-09-24T08:06:39.618Z,15.00
2022-09-24T08:09:08.076Z,13.45
2022-09-24T08:11:35.727Z,13.82
2022-09-24T08:14:04.411Z,12.55
2022-09-24T08:16:31.843Z,11.57
2022-09-24T08:18:59.898Z,14.75
2022-09-24T08:21:28.365Z,16.15
2022-09-24T08:23:56.306Z,13.30
2022-09-24T08:26:23.618Z,12.90
2022-09-24T08:28:51.741Z,9.77
2022-09-24T08:31:20.407Z,13.85
2022-09-24T08:33:50.716Z,11.65
2022-09-24T08:36:18.482Z,11.68
2022-09-24T08:38:45.926Z,16.50
2022-09-24T08:41:25.847Z,17.33
2022-09-24T08:43:57.847Z,11.13
2022-09-24T08:46:49.337Z,11.65
2022-09-24T08:49:19.838Z,10.43
2022-09-24T08:51:53.120Z,10.68
2022-09-24T08:54:24.064Z,11.05
2022-09-24T08:56:53.057Z,11.48
2022-09-24T08:59:27.065Z,10.68
2022-09-24T09:02:04.764Z,13.02
2022-09-24T09:04:38.206Z,10.75
2022-09-24T09:07:13.123Z,10.38
2022-09-24T09:09:47.365Z,9.57
2022-09-24T09:12:18.323Z,9.63
2022-09-24T09:14:50.068Z,11.80
2022-09-24T09:17:28.732Z,10.95
2022-09-24T09:19:57.726Z,7.60
2022-09-24T09:22:27.968Z,9.82
2022-09-24T09:25:03.688Z,11.90
2022-09-24T09:27:31.476Z,8.73
2022-09-24T09:30:00.044Z,11.75
2022-09-24T09:32:38.306Z,10.13
2022-09-24T09:35:12.810Z,12.27
2022-09-24T09:37:44.182Z,11.18
2022-09-24T09:40:31.403Z,10.15
2022-09-24T09:43:03.792Z,14.77
2022-09-24T09:45:35.364Z,10.35
2022-09-24T09:48:04.522Z,10.52
2022-09-24T09:50:36.825Z,9.52
2022-09-24T09:53:05.503Z,8.73
2022-09-24T09:55:35.422Z,12.18
2022-09-24T09:58:16.459Z,11.48
2022-09-24T10:00:49.511Z,8.57
2022-09-24T10:03:30.401Z,9.55
2022-09-24T10:05:59.776Z,13.70
2022-09-24T10:08:29.346Z,11.50
2022-09-24T10:10:57.833Z,10.13
2022-09-24T10:13:25.542Z,11.13
2022-09-24T10:15:54.593Z,8.38
2022-09-24T10:18:31.864Z,9.63
2022-09-24T10:21:02.562Z,12.70
2022-09-24T10:23:36.746Z,8.68
2022-09-24T10:26:05.636Z,11.32
2022-09-24T10:28:52.727Z,7.35
2022-09-24T10:31:22.492Z,9.90
2022-09-24T10:33:52.960Z,7.68
2022-09-24T10:36:21.831Z,8.43
2022-09-24T10:38:49.267Z,9.43
2022-09-24T10:41:20.907Z,7.18
2022-09-24T10:43:52.288Z,10.48
2022-09-24T10:46:35.309Z,9.52
2022-09-24T10:49:09.116Z,13.85
2022-09-24T10:51:40.614Z,20.33
2022-09-24T10:54:26.245Z,10.52
2022-09-24T10:56:55.661Z,68.63
2022-09-24T10:59:42.357Z,15.13
2022-09-24T11:02:29.090Z,9.50
2022-09-24T11:05:00.708Z,19.65
2022-09-24T11:07:43.973Z,13.25
2022-09-24T11:10:21.933Z,11.20
2022-09-24T11:12:55.217Z,7.00
2022-09-24T11:15:35.041Z,10.65
2022-09-24T11:18:28.333Z,8.27
2022-09-24T11:21:04.122Z,8.02
2022-09-24T11:23:58.484Z,6.90
2022-09-24T11:29:12.380Z,6.25
2022-09-24T11:31:42.432Z,13.43
2022-09-24T11:34:19.925Z,4.88
2022-09-24T11:36:58.776Z,10.30
2022-09-24T11:39:41.158Z,5.40
2022-09-24T11:42:19.676Z,9.93
2022-09-24T11:45:14.128Z,8.27
2022-09-24T11:47:54.146Z,8.50
2022-09-24T11:50:30.973Z,8.80
2022-09-24T11:53:07.156Z,9.90
2022-09-24T11:55:36.953Z,11.35
2022-09-24T11:58:11.814Z,14.52
2022-09-24T12:00:41.563Z,7.85
2022-09-24T12:03:15.292Z,11.50
2022-09-24T12:05:45.537Z,7.57
2022-09-24T12:08:17.483Z,10.48
2022-09-24T12:10:46.697Z,6.97
2022-09-24T12:13:18.117Z,10.05
2022-09-24T12:15:49.675Z,6.40
2022-09-24T12:18:19.905Z,8.35
2022-09-24T12:20:50.964Z,8.85
2022-09-24T12:23:23.963Z,8.02
2022-09-24T12:25:53.776Z,7.25
2022-09-24T12:28:35.799Z,17.10
2022-09-24T12:31:25.093Z,6.75
2022-09-24T12:33:55.089Z,8.18
2022-09-24T12:36:27.981Z,14.55
2022-09-24T12:39:01.471Z,8.23
2022-09-24T12:41:30.813Z,10.18
2022-09-24T12:44:01.125Z,14.32
2022-09-24T12:46:30.835Z,8.10
2022-09-24T12:48:58.228Z,6.50
2022-09-24T12:51:25.681Z,8.40
2022-09-24T12:54:00.544Z,7.88
2022-09-24T12:56:30.803Z,8.43
2022-09-24T12:58:58.515Z,7.38
2022-09-24T13:01:32.013Z,8.07
2022-09-24T13:04:05.705Z,11.15
2022-09-24T13:06:35.223Z,9.85
2022-09-24T13:09:05.128Z,8.23
2022-09-24T13:11:34.772Z,8.27
2022-09-24T13:14:08.646Z,7.55
2022-09-24T13:16:39.582Z,7.78
2022-09-24T13:19:26.023Z,7.47
2022-09-24T13:21:54.863Z,8.77
2022-09-24T13:24:27.671Z,9.40
2022-09-24T13:26:55.022Z,8.95
2022-09-24T13:29:25.444Z,9.20
2022-09-24T13:31:57.152Z,7.80
2022-09-24T13:34:27.189Z,9.57
2022-09-24T13:36:58.401Z,5.07
2022-09-24T13:39:31.063Z,10.48
2022-09-24T13:42:03.230Z,11.23
2022-09-24T13:44:32.300Z,7.22
2022-09-24T13:47:01.611Z,6.80
2022-09-24T13:49:30.700Z,6.15
2022-09-24T13:52:04.120Z,8.77
2022-09-24T13:54:34.928Z,9.20
2022-09-24T13:57:11.440Z,9.10
2022-09-24T13:59:38.816Z,8.48
2022-09-24T14:02:23.583Z,6.90
2022-09-24T14:04:54.861Z,7.45
2022-09-24T14:07:22.756Z,10.00
2022-09-24T14:09:51.950Z,12.18
2022-09-24T14:12:22.366Z,7.25
2022-09-24T14:14:54.202Z,7.88
2022-09-24T14:17:21.621Z,11.00
2022-09-24T14:19:49.746Z,19.02
2022-09-24T14:22:20.050Z,14.40
2022-09-24T14:24:54.345Z,14.60
2022-09-24T14:27:23.407Z,10.32
2022-09-24T14:29:56.034Z,13.38
2022-09-24T14:32:25.579Z,16.55
2022-09-24T14:34:54.168Z,9.23
2022-09-24T14:37:23.892Z,15.88
2022-09-24T14:40:00.068Z,27.15
2022-09-24T14:42:31.148Z,14.75
2022-09-24T14:44:58.714Z,14.38
2022-09-24T14:47:28.047Z,9.15
2022-09-24T14:49:55.821Z,11.32
2022-09-24T14:52:28.166Z,7.22
2022-09-24T14:55:15.227Z,10.10
2022-09-24T14:57:48.058Z,19.17
2022-09-24T15:02:50.872Z,9.60
2022-09-24T15:05:18.586Z,10.77
2022-09-24T15:07:47.168Z,12.20
2022-09-24T15:10:21.968Z,24.65
2022-09-24T15:12:52.258Z,16.70
2022-09-24T15:15:29.577Z,16.02
2022-09-24T15:17:57.244Z,20.38
2022-09-24T15:20:24.591Z,14.50
2022-09-24T15:22:51.917Z,13.73
2022-09-24T15:25:20.576Z,14.82
2022-09-24T15:27:49.353Z,21.63
2022-09-24T15:30:19.667Z,11.38
2022-09-24T15:32:47.755Z,9.73
2022-09-24T15:35:16.399Z,12.05
2022-09-24T15:37:44.444Z,9.13
2022-09-24T15:40:20.400Z,13.18
2022-09-24T15:42:49.342Z,17.85
2022-09-24T15:45:18.217Z,17.35
2022-09-24T15:47:45.568Z,18.33
2022-09-24T15:50:13.031Z,16.85
2022-09-24T15:52:45.323Z,15.45
2022-09-24T15:55:18.294Z,13.85
2022-09-24T15:57:46.703Z,13.60
2022-09-24T16:00:18.077Z,24.33
2022-09-24T16:02:47.704Z,20.10
2022-09-24T16:05:15.694Z,16.35
2022-09-24T16:07:43.538Z,17.40
2022-09-24T16:10:12.602Z,16.00
2022-09-24T16:12:40.208Z,14.23
2022-09-24T16:15:08.618Z,15.02
2022-09-24T16:17:38.430Z,18.33
2022-09-24T16:20:07.144Z,19.10
2022-09-24T16:22:34.481Z,17.42
2022-09-24T16:25:01.808Z,19.67
2022-09-24T16:27:29.724Z,16.65
2022-09-24T16:29:57.064Z,19.48
2022-09-24T16:32:24.391Z,21.48
2022-09-24T16:34:54.733Z,14.55
2022-09-24T16:37:22.188Z,13.45
2022-09-24T16:39:49.532Z,12.77
2022-09-24T16:42:16.891Z,17.63
2022-09-24T16:44:44.230Z,19.52
2022-09-24T16:47:11.579Z,13.48
2022-09-24T16:49:38.906Z,20.92
2022-09-24T16:52:07.545Z,17.55
2022-09-24T16:54:34.998Z,17.80
2022-09-24T16:57:05.941Z,25.58
2022-09-24T16:59:33.278Z,25.80
2022-09-24T17:02:00.818Z,35.60
2022-09-24T17:04:28.402Z,36.33
2022-09-24T17:06:56.326Z,34.13
2022-09-24T17:09:43.167Z,25.50
2022-09-24T17:12:11.004Z,30.63
2022-09-24T17:14:38.879Z,45.42
2022-09-24T17:17:06.470Z,40.88
2022-09-24T17:19:33.800Z,35.60
2022-09-24T17:22:01.187Z,32.55
2022-09-24T17:24:30.264Z,33.33
2022-09-24T17:26:57.598Z,27.73
2022-09-24T17:29:30.360Z,30.95
2022-09-24T17:34:26.146Z,32.85
2022-09-24T17:36:53.710Z,33.67
2022-09-24T17:39:21.046Z,30.50
2022-09-24T17:41:49.691Z,46.05
2022-09-24T17:44:18.065Z,45.88
2022-09-24T17:46:45.500Z,59.70
2022-09-24T17:49:12.909Z,49.75
2022-09-24T17:51:40.281Z,41.47
2022-09-24T17:54:09.096Z,35.33
2022-09-24T17:56:38.735Z,28.48
2022-09-24T17:59:08.281Z,29.95
2022-09-24T18:01:37.344Z,39.03
2022-09-24T18:04:06.855Z,40.60
2022-09-24T18:06:37.256Z,48.85
2022-09-24T18:09:05.400Z,51.83
2022-09-24T18:11:34.391Z,41.63
2022-09-24T18:14:02.344Z,28.58
2022-09-24T18:16:32.664Z,28.70
2022-09-24T18:19:01.019Z,25.83
2022-09-24T18:21:29.393Z,26.60
2022-09-24T18:23:57.739Z,33.42
2022-09-24T18:26:27.243Z,33.15
2022-09-24T18:28:56.581Z,36.55
2022-09-24T18:31:25.373Z,36.47
2022-09-24T18:33:54.762Z,34.42
2022-09-24T18:36:23.405Z,31.55
2022-09-24T18:38:50.871Z,27.00
2022-09-24T18:41:20.875Z,31.00
2022-09-24T18:43:48.251Z,27.58
2022-09-24T18:46:17.233Z,29.10
2022-09-24T18:48:46.917Z,22.98
2022-09-24T18:51:18.041Z,27.13
2022-09-24T18:53:45.773Z,25.52
2022-09-24T18:56:13.135Z,22.02
2022-09-24T18:58:40.466Z,20.00
2022-09-24T19:01:09.644Z,21.27
2022-09-24T19:03:39.580Z,24.88
2022-09-24T19:06:08.201Z,22.58
2022-09-24T19:08:36.941Z,22.08
2022-09-24T19:11:07.549Z,20.40
2022-09-24T19:13:35.850Z,22.75
2022-09-24T19:16:05.313Z,20.98
2022-09-24T19:18:33.570Z,19.75
2022-09-24T19:21:00.953Z,21.35
2022-09-24T19:23:28.307Z,19.35
2022-09-24T19:26:02.498Z,19.92
2022-09-24T19:28:30.227Z,20.13
2022-09-24T19:30:58.005Z,21.40
2022-09-24T19:33:25.669Z,22.08
2022-09-24T19:35:54.859Z,18.85
2022-09-24T19:38:29.815Z,23.77
2022-09-24T19:40:58.899Z,22.42
2022-09-24T19:43:28.046Z,25.50
2022-09-24T19:45:59.564Z,30.90
2022-09-24T19:48:27.504Z,23.42
2022-09-24T19:50:54.916Z,25.35
2022-09-24T19:53:22.409Z,27.13
2022-09-24T19:55:49.904Z,26.20
2022-09-24T19:58:17.282Z,24.15
2022-09-24T20:00:46.037Z,23.25
2022-09-24T20:03:13.861Z,25.23
2022-09-24T20:05:43.203Z,23.88
2022-09-24T20:08:12.420Z,23.13
2022-09-24T20:10:40.664Z,22.15
2022-09-24T20:13:10.547Z,23.15
2022-09-24T20:15:39.002Z,24.48
2022-09-24T20:18:08.412Z,23.83
2022-09-24T20:20:35.746Z,24.13
2022-09-24T20:23:03.083Z,27.15
2022-09-24T20:25:48.179Z,21.17
2022-09-24T20:28:16.442Z,17.60
2022-09-24T20:30:44.347Z,22.02
2022-09-24T20:33:13.542Z,21.27
2022-09-24T20:35:42.051Z,23.65
2022-09-24T20:38:10.274Z,21.45
2022-09-24T20:40:40.617Z,16.25
2022-09-24T20:43:08.597Z,20.77
2022-09-24T20:45:35.928Z,21.50
2022-09-24T20:48:03.273Z,16.95
2022-09-24T20:50:32.506Z,17.60
2022-09-24T20:53:00.001Z,18.95
2022-09-24T20:55:27.314Z,16.17
2022-09-24T20:57:54.884Z,15.60
2022-09-24T21:00:24.652Z,18.60
2022-09-24T21:02:52.666Z,16.27
2022-09-24T21:05:20.075Z,17.20
2022-09-24T21:07:48.749Z,15.30
2022-09-24T21:10:16.096Z,16.10
2022-09-24T21:12:46.314Z,13.63
2022-09-24T21:15:17.695Z,16.63
2022-09-24T21:18:05.153Z,18.73
2022-09-24T21:20:34.105Z,15.07
2022-09-24T21:23:02.777Z,15.30
2022-09-24T21:25:53.335Z,15.95
2022-09-24T21:28:18.359Z,14.30
2022-09-24T21:30:56.557Z,17.92
2022-09-24T21:33:24.118Z,14.27
2022-09-24T21:35:51.459Z,13.10
2022-09-24T21:38:20.112Z,14.27
2022-09-24T21:40:53.436Z,14.05
2022-09-24T21:43:25.217Z,14.48
2022-09-24T21:45:55.117Z,17.05
2022-09-24T21:48:26.488Z,15.18
2022-09-24T21:50:53.912Z,11.68
2022-09-24T21:53:22.536Z,12.95
2022-09-24T21:55:49.898Z,13.93
2022-09-24T21:58:17.269Z,12.50
2022-09-24T22:00:44.595Z,14.38
2022-09-24T22:03:12.318Z,10.93
2022-09-24T22:05:43.764Z,11.82
2022-09-24T22:08:12.898Z,9.82
2022-09-24T22:10:43.902Z,11.23
2022-09-24T22:13:14.978Z,11.52
2022-09-24T22:15:43.627Z,9.15
2022-09-24T22:18:11.816Z,11.15
2022-09-24T22:20:42.589Z,10.43
2022-09-24T22:23:10.061Z,10.45
2022-09-24T22:25:37.399Z,9.27
2022-09-24T22:28:06.212Z,9.05
2022-09-24T22:30:33.672Z,10.13
2022-09-24T22:33:01.039Z,10.07
2022-09-24T22:35:45.787Z,9.70
2022-09-24T22:38:15.664Z,29.48
2022-09-24T22:40:43.404Z,13.27
2022-09-24T22:43:12.058Z,10.57
2022-09-24T22:45:39.483Z,8.93
2022-09-24T22:48:06.883Z,6.95
2022-09-24T22:50:34.216Z,8.43
2022-09-24T22:53:02.178Z,7.95
2022-09-24T22:55:29.512Z,10.98
2022-09-24T22:57:56.948Z,9.00
2022-09-24T23:00:25.691Z,7.57
2022-09-24T23:02:53.091Z,7.88
2022-09-24T23:05:20.513Z,8.32
2022-09-24T23:07:47.870Z,8.45
2022-09-24T23:10:15.425Z,6.05
2022-09-24T23:12:42.796Z,10.60
2022-09-24T23:15:10.353Z,8.30
2022-09-24T23:17:39.008Z,9.45
2022-09-24T23:20:07.815Z,7.60
2022-09-24T23:22:35.415Z,6.90
2022-09-24T23:25:02.753Z,7.63
2022-09-24T23:27:30.167Z,13.05
2022-09-24T23:29:57.496Z,7.75
2022-09-24T23:32:24.846Z,9.13
2022-09-24T23:34:54.035Z,8.18
2022-09-24T23:37:21.427Z,6.93
2022-09-24T23:39:48.751Z,6.22
2022-09-24T23:42:16.086Z,6.90
2022-09-24T23:44:45.241Z,7.82
2022-09-24T23:47:12.589Z,6.28
2022-09-24T23:49:39.917Z,9.75
2022-09-24T23:52:08.556Z,8.52
2022-09-24T23:54:37.407Z,8.23
2022-09-24T23:57:06.248Z,6.93
2022-09-24T23:59:34.187Z,8.30
